createdAt,value
2023-05-10T00:02:58.926Z,1.63
2023-05-10T00:08:00.964Z,1.65
2023-05-10T00:13:03.014Z,1.65
2023-05-10T00:18:06.500Z,1.65
2023-05-10T00:23:08.496Z,2.10
2023-05-10T00:28:10.448Z,1.60
2023-05-10T00:33:13.855Z,1.58
2023-05-10T00:38:15.884Z,1.73
2023-05-10T00:43:18.078Z,1.30
2023-05-10T00:48:22.530Z,1.70
2023-05-10T00:53:25.597Z,1.85
2023-05-10T00:58:29.280Z,1.67
2023-05-10T01:03:33.325Z,1.80
2023-05-10T01:08:35.397Z,1.67
2023-05-10T01:13:40.352Z,1.70
2023-05-10T01:18:44.875Z,1.60
2023-05-10T01:24:07.614Z,1.98
2023-05-10T01:29:19.894Z,1.88
2023-05-10T01:34:28.250Z,1.83
2023-05-10T01:39:36.930Z,1.98
2023-05-10T01:44:44.078Z,1.50
2023-05-10T01:49:51.441Z,2.00
2023-05-10T01:54:57.075Z,2.08
2023-05-10T02:00:01.814Z,1.85
2023-05-10T02:05:06.996Z,2.28
2023-05-10T02:10:10.860Z,1.92
2023-05-10T02:15:15.750Z,2.30
2023-05-10T02:20:20.401Z,2.20
2023-05-10T02:25:24.271Z,1.77
2023-05-10T02:30:27.061Z,1.80
2023-05-10T02:35:31.830Z,1.75
2023-05-10T02:40:34.913Z,1.90
2023-05-10T02:45:39.815Z,2.10
2023-05-10T02:50:48.705Z,2.25
2023-05-10T02:55:53.705Z,2.38
2023-05-10T03:00:55.786Z,2.22
2023-05-10T03:06:02.205Z,2.20
2023-05-10T03:11:23.262Z,1.70
2023-05-10T03:16:30.312Z,2.47
2023-05-10T03:21:36.182Z,2.30
2023-05-10T03:26:39.484Z,2.30
2023-05-10T03:31:41.772Z,1.70
2023-05-10T03:36:45.175Z,1.95
2023-05-10T03:41:47.101Z,2.05
2023-05-10T03:46:49.097Z,2.00
2023-05-10T03:51:52.733Z,2.13
2023-05-10T03:56:54.723Z,2.15
2023-05-10T04:01:56.711Z,1.48
2023-05-10T04:07:00.039Z,2.33
2023-05-10T04:12:03.301Z,1.60
2023-05-10T04:17:05.392Z,2.30
2023-05-10T04:22:08.782Z,2.03
2023-05-10T04:27:10.810Z,1.73
2023-05-10T04:32:12.802Z,2.20
2023-05-10T04:37:16.053Z,2.22
2023-05-10T04:42:18.070Z,1.88
2023-05-10T04:47:20.069Z,1.83
2023-05-10T04:52:23.496Z,2.08
2023-05-10T04:57:25.621Z,1.67
2023-05-10T05:02:27.668Z,1.90
2023-05-10T05:07:31.663Z,1.92
2023-05-10T05:12:33.724Z,1.90
2023-05-10T05:17:35.753Z,2.13
2023-05-10T05:22:39.190Z,1.80
2023-05-10T05:27:41.133Z,1.83
2023-05-10T05:32:43.175Z,1.50
2023-05-10T05:37:46.537Z,1.85
2023-05-10T05:42:48.568Z,1.83
2023-05-10T05:47:50.531Z,1.80
2023-05-10T05:52:53.912Z,1.50
2023-05-10T05:57:55.930Z,1.77
2023-05-10T06:02:58.108Z,1.33
2023-05-10T06:08:02.166Z,1.98
2023-05-10T06:13:04.269Z,1.58
2023-05-10T06:18:07.030Z,2.42
2023-05-10T06:28:12.415Z,2.10
2023-05-10T06:33:14.497Z,2.28
2023-05-10T06:38:17.810Z,2.35
2023-05-10T06:43:19.782Z,2.10
2023-05-10T06:48:21.802Z,2.30
2023-05-10T06:53:25.335Z,2.40
2023-05-10T06:58:27.277Z,2.70
2023-05-10T07:03:29.281Z,2.10
2023-05-10T07:08:32.824Z,2.47
2023-05-10T07:13:35.559Z,1.80
2023-05-10T07:18:37.544Z,2.33
2023-05-10T07:23:42.469Z,2.38
2023-05-10T07:28:46.556Z,1.90
2023-05-10T07:33:48.596Z,2.25
2023-05-10T07:38:52.078Z,2.80
2023-05-10T07:43:54.020Z,2.05
2023-05-10T07:48:56.097Z,2.47
2023-05-10T07:53:59.552Z,2.35
2023-05-10T07:59:02.545Z,2.42
2023-05-10T08:04:04.981Z,2.80
2023-05-10T08:09:08.488Z,1.75
2023-05-10T08:14:10.613Z,2.38
2023-05-10T08:19:12.610Z,2.85
2023-05-10T08:24:16.228Z,2.50
2023-05-10T08:29:18.288Z,2.53
2023-05-10T08:34:20.237Z,2.42
2023-05-10T08:39:30.249Z,2.38
2023-05-10T08:44:35.177Z,2.03
2023-05-10T08:49:38.470Z,2.58
2023-05-10T08:54:42.514Z,2.60
2023-05-10T08:59:44.470Z,2.22
2023-05-10T09:04:46.833Z,2.15
2023-05-10T09:09:50.786Z,2.08
2023-05-10T09:14:55.064Z,2.85
2023-05-10T09:20:00.544Z,2.38
2023-05-10T09:25:09.463Z,2.20
2023-05-10T09:30:16.478Z,1.98
2023-05-10T09:35:20.494Z,2.70
2023-05-10T09:40:25.224Z,2.42
2023-05-10T09:45:29.420Z,2.47
2023-05-10T09:50:31.792Z,2.13
2023-05-10T09:55:43.793Z,1.90
2023-05-10T10:00:48.753Z,1.90
2023-05-10T10:05:51.224Z,1.80
2023-05-10T10:10:54.681Z,1.90
2023-05-10T10:15:56.680Z,2.00
2023-05-10T10:26:02.787Z,2.10
2023-05-10T10:31:22.173Z,2.00
2023-05-10T10:36:24.251Z,2.20
2023-05-10T10:46:35.350Z,1.90
2023-05-10T10:51:38.189Z,2.40
2023-05-10T10:56:41.454Z,2.13
2023-05-10T11:01:45.493Z,2.38
2023-05-10T11:06:47.733Z,2.88
2023-05-10T11:16:54.299Z,2.60
2023-05-10T11:22:14.399Z,2.10
2023-05-10T11:27:17.825Z,2.15
2023-05-10T11:32:20.676Z,2.42
2023-05-10T11:37:22.675Z,2.33
2023-05-10T11:42:26.010Z,2.35
2023-05-10T11:47:28.026Z,2.28
2023-05-10T11:52:30.073Z,2.03
2023-05-10T11:57:33.491Z,2.30
2023-05-10T12:02:35.863Z,2.03
2023-05-10T12:07:38.008Z,2.28
2023-05-10T12:12:45.528Z,2.13
2023-05-10T12:17:48.055Z,2.05
2023-05-10T12:22:54.446Z,1.90
2023-05-10T12:28:01.638Z,2.33
2023-05-10T12:33:08.976Z,2.08
2023-05-10T12:38:26.244Z,1.90
2023-05-10T12:43:29.896Z,2.50
2023-05-10T12:48:32.428Z,2.10
2023-05-10T12:53:34.349Z,1.73
2023-05-10T13:03:39.465Z,2.17
2023-05-10T13:13:44.840Z,1.80
2023-05-10T13:18:46.838Z,1.80
2023-05-10T13:28:52.860Z,1.35
2023-05-10T13:33:54.980Z,1.60
2023-05-10T13:44:00.395Z,1.90
2023-05-10T13:49:02.963Z,1.50
2023-05-10T13:54:05.058Z,1.70
2023-05-10T13:59:08.788Z,1.50
2023-05-10T14:04:11.607Z,1.77
2023-05-10T14:09:13.836Z,1.52
2023-05-10T14:14:17.228Z,2.13
2023-05-10T14:19:19.440Z,1.77
2023-05-10T14:24:21.451Z,1.73
2023-05-10T14:29:24.922Z,1.25
2023-05-10T14:34:26.923Z,1.67
2023-05-10T14:39:31.139Z,1.70
2023-05-10T14:44:34.464Z,1.38
2023-05-10T14:49:36.581Z,1.67
2023-05-10T14:59:42.126Z,1.13
2023-05-10T15:04:44.488Z,1.50
2023-05-10T15:09:47.180Z,1.77
2023-05-10T15:14:50.617Z,1.75
2023-05-10T15:19:52.752Z,1.50
2023-05-10T15:24:54.831Z,1.52
2023-05-10T15:30:00.210Z,1.60
2023-05-10T15:35:03.510Z,1.88
2023-05-10T15:40:07.202Z,1.65
2023-05-10T15:45:12.112Z,1.70
2023-05-10T15:50:15.541Z,1.70
2023-05-10T15:55:18.020Z,1.60
2023-05-10T16:00:22.008Z,1.85
2023-05-10T16:05:24.233Z,1.67
2023-05-10T16:15:29.623Z,2.10
2023-05-10T16:20:33.010Z,1.52
2023-05-10T16:25:35.736Z,1.63
2023-05-10T16:30:39.328Z,2.00
2023-05-10T16:35:41.416Z,2.08
2023-05-10T16:40:43.409Z,1.80
2023-05-10T16:45:46.771Z,1.65
2023-05-10T16:50:49.011Z,1.70
2023-05-10T16:55:51.078Z,2.97
2023-05-10T17:00:55.177Z,1.75
2023-05-10T17:05:57.251Z,2.08
2023-05-10T17:11:01.383Z,2.25
2023-05-10T17:16:05.044Z,2.35
2023-05-10T17:21:07.164Z,2.15
2023-05-10T17:26:09.270Z,1.80
2023-05-10T17:31:12.760Z,1.90
2023-05-10T17:36:14.807Z,1.58
2023-05-10T17:41:17.128Z,1.80
2023-05-10T17:51:22.581Z,1.70
2023-05-10T17:56:25.432Z,1.83
2023-05-10T18:01:28.878Z,2.20
2023-05-10T18:06:30.933Z,4.68
2023-05-10T18:11:34.620Z,1.75
2023-05-10T18:16:38.076Z,1.73
2023-05-10T18:21:40.258Z,1.88
2023-05-10T18:26:43.015Z,2.03
2023-05-10T18:31:46.389Z,1.77
2023-05-10T18:36:48.677Z,1.92
2023-05-10T18:41:50.772Z,1.70
2023-05-10T18:46:54.296Z,1.83
2023-05-10T18:51:56.396Z,1.77
2023-05-10T18:56:58.772Z,2.08
2023-05-10T19:02:02.601Z,1.42
2023-05-10T19:07:04.701Z,1.73
2023-05-10T19:12:06.854Z,1.52
2023-05-10T19:17:10.232Z,1.85
2023-05-10T19:22:12.314Z,2.10
2023-05-10T19:27:15.801Z,1.85
2023-05-10T19:32:19.428Z,2.70
2023-05-10T19:37:21.489Z,2.10
2023-05-10T19:42:23.428Z,2.40
2023-05-10T19:47:26.844Z,2.35
2023-05-10T19:52:28.798Z,1.80
2023-05-10T19:57:30.945Z,1.90
2023-05-10T20:02:34.297Z,2.28
2023-05-10T20:07:36.960Z,1.90
2023-05-10T20:12:39.043Z,1.85
2023-05-10T20:17:42.441Z,1.80
2023-05-10T20:22:44.682Z,2.03
2023-05-10T20:27:46.898Z,1.67
2023-05-10T20:32:50.325Z,2.15
2023-05-10T20:37:52.414Z,1.92
2023-05-10T20:42:54.499Z,2.05
2023-05-10T20:47:58.197Z,1.85
2023-05-10T20:53:01.053Z,2.38
2023-05-10T20:58:04.824Z,3.10
2023-05-10T21:03:08.547Z,3.55
2023-05-10T21:08:10.568Z,5.47
2023-05-10T21:13:12.578Z,4.70
2023-05-10T21:18:15.878Z,4.20
2023-05-10T21:23:17.861Z,2.72
2023-05-10T21:28:19.890Z,3.17
2023-05-10T21:33:23.741Z,3.17
2023-05-10T21:38:27.650Z,2.30
2023-05-10T21:43:29.589Z,3.00
2023-05-10T21:48:32.887Z,3.20
2023-05-10T21:53:36.167Z,2.55
2023-05-10T21:58:38.175Z,2.80
2023-05-10T22:03:41.480Z,3.17
2023-05-10T22:08:43.971Z,2.88
2023-05-10T22:13:45.918Z,2.40
2023-05-10T22:18:49.267Z,2.30
2023-05-10T22:23:51.792Z,2.40
2023-05-10T22:28:53.729Z,2.20
2023-05-10T22:33:57.133Z,2.05
2023-05-10T22:38:59.080Z,2.28
2023-05-10T22:44:01.303Z,1.80
2023-05-10T22:49:04.817Z,2.35
2023-05-10T22:54:07.283Z,2.15
2023-05-10T22:59:09.538Z,2.60
2023-05-10T23:04:12.825Z,2.10
2023-05-10T23:09:14.816Z,2.28
2023-05-10T23:14:16.953Z,2.33
2023-05-10T23:19:20.243Z,2.17
2023-05-10T23:24:22.247Z,2.30
2023-05-10T23:29:26.184Z,1.85
2023-05-10T23:34:29.685Z,2.00
2023-05-10T23:39:31.875Z,1.92
2023-05-10T23:44:33.837Z,2.13
2023-05-10T23:49:37.990Z,1.77
2023-05-10T23:54:39.920Z,1.90
2023-05-10T23:59:41.871Z,1.98
